sensor_id;sensor_type;location;lat;lon;timestamp;P1;durP1;ratioP1;P2;durP2;ratioP2
38190;SDS011;25191;47.510;19.124;2022-10-16T00:02:16;5.82;;;3.38;;
38190;SDS011;25191;47.510;19.124;2022-10-16T00:12:16;5.28;;;3.10;;
38190;SDS011;25191;47.510;19.124;2022-10-16T00:22:16;5.97;;;3.47;;
38190;SDS011;25191;47.510;19.124;2022-10-16T00:32:17;8.23;;;3.42;;
38190;SDS011;25191;47.510;19.124;2022-10-16T00:42:19;8.77;;;3.25;;
38190;SDS011;25191;47.510;19.124;2022-10-16T00:52:19;4.00;;;3.28;;
38190;SDS011;25191;47.510;19.124;2022-10-16T01:02:20;5.53;;;3.33;;
38190;SDS011;25191;47.510;19.124;2022-10-16T01:22:20;3.13;;;2.78;;
38190;SDS011;25191;47.510;19.124;2022-10-16T01:42:53;4.78;;;2.80;;
38190;SDS011;25191;47.510;19.124;2022-10-16T01:52:59;4.28;;;3.17;;
38190;SDS011;25191;47.510;19.124;2022-10-16T02:03:03;3.70;;;2.90;;
38190;SDS011;25191;47.510;19.124;2022-10-16T02:13:10;3.45;;;2.88;;
38190;SDS011;25191;47.510;19.124;2022-10-16T02:23:19;3.65;;;2.65;;
38190;SDS011;25191;47.510;19.124;2022-10-16T02:33:25;4.20;;;2.90;;
38190;SDS011;25191;47.510;19.124;2022-10-16T02:43:27;2.90;;;2.67;;
38190;SDS011;25191;47.510;19.124;2022-10-16T02:53:29;3.17;;;2.80;;
38190;SDS011;25191;47.510;19.124;2022-10-16T03:03:30;3.28;;;2.90;;
38190;SDS011;25191;47.510;19.124;2022-10-16T03:13:31;2.95;;;2.60;;
38190;SDS011;25191;47.510;19.124;2022-10-16T03:23:32;3.22;;;2.55;;
38190;SDS011;25191;47.510;19.124;2022-10-16T03:33:32;3.78;;;2.97;;
38190;SDS011;25191;47.510;19.124;2022-10-16T03:43:33;4.03;;;3.10;;
38190;SDS011;25191;47.510;19.124;2022-10-16T03:53:33;4.60;;;2.60;;
38190;SDS011;25191;47.510;19.124;2022-10-16T04:03:34;3.33;;;3.00;;
38190;SDS011;25191;47.510;19.124;2022-10-16T04:13:34;3.20;;;2.88;;
38190;SDS011;25191;47.510;19.124;2022-10-16T04:23:34;4.40;;;2.47;;
38190;SDS011;25191;47.510;19.124;2022-10-16T04:33:35;2.83;;;2.50;;
38190;SDS011;25191;47.510;19.124;2022-10-16T04:43:35;7.25;;;2.92;;
38190;SDS011;25191;47.510;19.124;2022-10-16T04:53:35;5.53;;;2.55;;
38190;SDS011;25191;47.510;19.124;2022-10-16T05:03:36;10.07;;;2.60;;
38190;SDS011;25191;47.510;19.124;2022-10-16T05:13:37;5.97;;;2.75;;
38190;SDS011;25191;47.510;19.124;2022-10-16T05:23:38;2.60;;;2.40;;
38190;SDS011;25191;47.510;19.124;2022-10-16T05:33:38;7.07;;;3.13;;
38190;SDS011;25191;47.510;19.124;2022-10-16T05:43:38;5.25;;;2.90;;
38190;SDS011;25191;47.510;19.124;2022-10-16T05:53:39;7.63;;;3.30;;
38190;SDS011;25191;47.510;19.124;2022-10-16T06:03:40;4.75;;;2.83;;
38190;SDS011;25191;47.510;19.124;2022-10-16T06:13:41;3.85;;;2.90;;
38190;SDS011;25191;47.510;19.124;2022-10-16T06:23:42;3.60;;;2.90;;
38190;SDS011;25191;47.510;19.124;2022-10-16T06:33:43;4.45;;;2.65;;
38190;SDS011;25191;47.510;19.124;2022-10-16T06:43:45;3.92;;;2.50;;
38190;SDS011;25191;47.510;19.124;2022-10-16T06:53:47;7.53;;;4.38;;
38190;SDS011;25191;47.510;19.124;2022-10-16T07:03:49;6.85;;;4.55;;
38190;SDS011;25191;47.510;19.124;2022-10-16T07:13:50;6.87;;;4.97;;
38190;SDS011;25191;47.510;19.124;2022-10-16T07:23:51;16.33;;;5.30;;
38190;SDS011;25191;47.510;19.124;2022-10-16T07:33:53;20.80;;;6.95;;
38190;SDS011;25191;47.510;19.124;2022-10-16T07:43:53;20.95;;;5.88;;
38190;SDS011;25191;47.510;19.124;2022-10-16T07:53:54;22.75;;;5.82;;
38190;SDS011;25191;47.510;19.124;2022-10-16T08:03:55;16.60;;;5.35;;
38190;SDS011;25191;47.510;19.124;2022-10-16T08:13:55;17.52;;;5.10;;
38190;SDS011;25191;47.510;19.124;2022-10-16T08:23:55;10.13;;;4.82;;
38190;SDS011;25191;47.510;19.124;2022-10-16T08:33:56;11.32;;;4.38;;
38190;SDS011;25191;47.510;19.124;2022-10-16T08:54:37;11.90;;;4.50;;
38190;SDS011;25191;47.510;19.124;2022-10-16T09:04:46;9.05;;;4.65;;
38190;SDS011;25191;47.510;19.124;2022-10-16T09:25:16;10.70;;;4.20;;
38190;SDS011;25191;47.510;19.124;2022-10-16T09:35:27;5.35;;;3.83;;
38190;SDS011;25191;47.510;19.124;2022-10-16T09:45:35;6.95;;;4.07;;
38190;SDS011;25191;47.510;19.124;2022-10-16T09:55:35;7.18;;;3.90;;
38190;SDS011;25191;47.510;19.124;2022-10-16T10:05:36;5.90;;;3.60;;
38190;SDS011;25191;47.510;19.124;2022-10-16T10:15:41;5.88;;;3.80;;
38190;SDS011;25191;47.510;19.124;2022-10-16T10:25:49;4.75;;;3.78;;
38190;SDS011;25191;47.510;19.124;2022-10-16T10:46:11;5.38;;;3.35;;
38190;SDS011;25191;47.510;19.124;2022-10-16T11:06:24;4.68;;;3.15;;
38190;SDS011;25191;47.510;19.124;2022-10-16T11:16:35;3.90;;;3.10;;
38190;SDS011;25191;47.510;19.124;2022-10-16T11:26:41;3.28;;;2.85;;
38190;SDS011;25191;47.510;19.124;2022-10-16T11:36:47;4.85;;;2.95;;
38190;SDS011;25191;47.510;19.124;2022-10-16T11:57:39;4.22;;;2.63;;
38190;SDS011;25191;47.510;19.124;2022-10-16T12:07:48;4.22;;;2.72;;
38190;SDS011;25191;47.510;19.124;2022-10-16T12:18:19;3.35;;;2.65;;
38190;SDS011;25191;47.510;19.124;2022-10-16T12:28:22;3.15;;;2.38;;
38190;SDS011;25191;47.510;19.124;2022-10-16T12:38:29;3.75;;;2.78;;
38190;SDS011;25191;47.510;19.124;2022-10-16T12:48:36;3.80;;;2.70;;
38190;SDS011;25191;47.510;19.124;2022-10-16T13:09:02;7.82;;;3.22;;
38190;SDS011;25191;47.510;19.124;2022-10-16T13:19:11;15.15;;;3.45;;
38190;SDS011;25191;47.510;19.124;2022-10-16T13:29:37;4.80;;;3.00;;
38190;SDS011;25191;47.510;19.124;2022-10-16T13:39:41;4.00;;;3.35;;
38190;SDS011;25191;47.510;19.124;2022-10-16T13:49:41;4.97;;;3.00;;
38190;SDS011;25191;47.510;19.124;2022-10-16T13:59:42;3.22;;;2.50;;
38190;SDS011;25191;47.510;19.124;2022-10-16T14:09:42;4.97;;;2.70;;
38190;SDS011;25191;47.510;19.124;2022-10-16T14:19:50;3.75;;;2.80;;
38190;SDS011;25191;47.510;19.124;2022-10-16T14:30:05;5.20;;;3.15;;
38190;SDS011;25191;47.510;19.124;2022-10-16T14:40:14;3.80;;;2.97;;
38190;SDS011;25191;47.510;19.124;2022-10-16T14:50:15;3.35;;;2.75;;
38190;SDS011;25191;47.510;19.124;2022-10-16T15:00:19;3.90;;;2.80;;
38190;SDS011;25191;47.510;19.124;2022-10-16T15:10:22;5.35;;;3.10;;
38190;SDS011;25191;47.510;19.124;2022-10-16T15:20:32;5.22;;;3.40;;
38190;SDS011;25191;47.510;19.124;2022-10-16T15:30:35;5.90;;;3.40;;
38190;SDS011;25191;47.510;19.124;2022-10-16T15:40:42;10.17;;;3.23;;
38190;SDS011;25191;47.510;19.124;2022-10-16T15:50:42;10.15;;;3.17;;
38190;SDS011;25191;47.510;19.124;2022-10-16T16:00:43;7.75;;;3.45;;
38190;SDS011;25191;47.510;19.124;2022-10-16T16:10:43;4.45;;;2.95;;
38190;SDS011;25191;47.510;19.124;2022-10-16T16:20:43;10.48;;;3.10;;
38190;SDS011;25191;47.510;19.124;2022-10-16T16:30:44;6.82;;;3.33;;
38190;SDS011;25191;47.510;19.124;2022-10-16T16:40:44;18.95;;;3.40;;
38190;SDS011;25191;47.510;19.124;2022-10-16T16:50:45;8.57;;;2.97;;
38190;SDS011;25191;47.510;19.124;2022-10-16T17:00:45;5.90;;;2.80;;
38190;SDS011;25191;47.510;19.124;2022-10-16T17:10:46;6.00;;;3.03;;
38190;SDS011;25191;47.510;19.124;2022-10-16T17:20:52;9.27;;;3.30;;
38190;SDS011;25191;47.510;19.124;2022-10-16T17:30:52;8.60;;;3.38;;
38190;SDS011;25191;47.510;19.124;2022-10-16T17:40:53;8.10;;;3.60;;
38190;SDS011;25191;47.510;19.124;2022-10-16T17:50:53;12.15;;;4.00;;
38190;SDS011;25191;47.510;19.124;2022-10-16T18:00:53;18.20;;;3.78;;
38190;SDS011;25191;47.510;19.124;2022-10-16T18:10:54;14.63;;;4.97;;
38190;SDS011;25191;47.510;19.124;2022-10-16T18:20:55;14.77;;;7.13;;
38190;SDS011;25191;47.510;19.124;2022-10-16T18:31:04;12.70;;;6.80;;
38190;SDS011;25191;47.510;19.124;2022-10-16T18:41:07;10.82;;;5.78;;
38190;SDS011;25191;47.510;19.124;2022-10-16T18:51:17;8.45;;;4.80;;
38190;SDS011;25191;47.510;19.124;2022-10-16T19:01:20;14.07;;;5.15;;
38190;SDS011;25191;47.510;19.124;2022-10-16T19:11:23;10.20;;;4.85;;
38190;SDS011;25191;47.510;19.124;2022-10-16T19:21:25;13.63;;;4.73;;
38190;SDS011;25191;47.510;19.124;2022-10-16T19:41:29;9.18;;;5.10;;
38190;SDS011;25191;47.510;19.124;2022-10-16T19:51:30;9.63;;;4.60;;
38190;SDS011;25191;47.510;19.124;2022-10-16T20:01:30;9.10;;;4.72;;
38190;SDS011;25191;47.510;19.124;2022-10-16T20:11:32;6.65;;;4.30;;
38190;SDS011;25191;47.510;19.124;2022-10-16T20:21:33;7.90;;;4.68;;
38190;SDS011;25191;47.510;19.124;2022-10-16T20:31:34;8.40;;;4.68;;
38190;SDS011;25191;47.510;19.124;2022-10-16T20:41:35;11.17;;;5.17;;
38190;SDS011;25191;47.510;19.124;2022-10-16T20:51:36;6.60;;;4.38;;
38190;SDS011;25191;47.510;19.124;2022-10-16T21:01:37;7.85;;;4.70;;
38190;SDS011;25191;47.510;19.124;2022-10-16T21:11:38;7.68;;;4.82;;
38190;SDS011;25191;47.510;19.124;2022-10-16T21:21:38;7.30;;;4.93;;
38190;SDS011;25191;47.510;19.124;2022-10-16T21:31:39;7.53;;;5.05;;
38190;SDS011;25191;47.510;19.124;2022-10-16T21:41:42;6.78;;;4.85;;
38190;SDS011;25191;47.510;19.124;2022-10-16T21:51:45;7.25;;;4.72;;
38190;SDS011;25191;47.510;19.124;2022-10-16T22:01:48;6.70;;;4.60;;
38190;SDS011;25191;47.510;19.124;2022-10-16T22:11:52;8.13;;;4.93;;
38190;SDS011;25191;47.510;19.124;2022-10-16T22:21:52;8.00;;;4.60;;
38190;SDS011;25191;47.510;19.124;2022-10-16T22:31:56;7.22;;;4.75;;
38190;SDS011;25191;47.510;19.124;2022-10-16T22:41:56;8.57;;;4.75;;
38190;SDS011;25191;47.510;19.124;2022-10-16T22:51:56;6.20;;;4.50;;
38190;SDS011;25191;47.510;19.124;2022-10-16T23:01:57;9.90;;;4.97;;
38190;SDS011;25191;47.510;19.124;2022-10-16T23:11:57;6.57;;;4.28;;
38190;SDS011;25191;47.510;19.124;2022-10-16T23:21:58;7.32;;;4.32;;
38190;SDS011;25191;47.510;19.124;2022-10-16T23:31:59;5.95;;;4.13;;
38190;SDS011;25191;47.510;19.124;2022-10-16T23:41:59;7.05;;;4.20;;
38190;SDS011;25191;47.510;19.124;2022-10-16T23:52:01;5.47;;;4.60;;
